Time;durP1;ratioP1;P1;durP2;ratioP2;P2;SDS_P1;SDS_P2;PMS_P1;PMS_P2;Temp;Humidity;BMP_temperature;BMP_pressure;BME280_temperature;BME280_humidity;BME280_pressure;Samples;Min_cycle;Max_cycle;Signal;HPM_P1;HPM_P2
2023/10/08 00:01:35;;;;;;;9.05;4.70;;;16.50;70.20;;;;;;4987840;28;20037;-63
2023/10/08 00:04:04;;;;;;;8.32;5.43;;;16.50;70.30;;;;;;4989033;28;20050;-62
2023/10/08 00:06:30;;;;;;;6.88;4.60;;;16.50;70.30;;;;;;4988882;28;20033;-61
2023/10/08 00:09:08;;;;;;;6.90;4.80;;;16.60;70.40;;;;;;4989137;28;20027;-63
2023/10/08 00:11:36;;;;;;;6.75;4.28;;;16.60;70.40;;;;;;4987964;28;20061;-63
2023/10/08 00:14:04;;;;;;;6.50;4.72;;;16.60;70.60;;;;;;4988332;28;20073;-63
2023/10/08 00:16:33;;;;;;;6.07;4.57;;;16.60;70.40;;;;;;4988283;28;20088;-63
2023/10/08 00:19:03;;;;;;;6.78;4.47;;;16.60;70.30;;;;;;4988970;28;20542;-63
2023/10/08 00:21:34;;;;;;;5.63;4.43;;;16.60;70.30;;;;;;4989427;28;20050;-63
2023/10/08 00:23:59;;;;;;;5.95;4.60;;;16.60;70.20;;;;;;4988755;28;20034;-63
2023/10/08 00:26:31;;;;;;;9.15;4.68;;;16.60;70.40;;;;;;4988775;28;20034;-63
2023/10/08 00:29:15;;;;;;;6.68;4.50;;;16.60;70.40;;;;;;4989100;28;20354;-63
2023/10/08 00:31:44;;;;;;;7.60;5.13;;;16.60;70.30;;;;;;4988420;28;20052;-63
2023/10/08 00:34:13;;;;;;;5.85;4.38;;;16.60;70.40;;;;;;4988209;28;20030;-63
2023/10/08 00:36:41;;;;;;;8.95;4.30;;;16.50;70.40;;;;;;4987074;28;20522;-63
2023/10/08 00:39:14;;;;;;;6.72;4.63;;;16.50;70.50;;;;;;4988298;28;20033;-63
2023/10/08 00:41:45;;;;;;;10.13;5.07;;;16.50;70.60;;;;;;4986900;28;20034;-63
2023/10/08 00:44:22;;;;;;;6.75;4.38;;;16.50;70.90;;;;;;4987603;28;20875;-63
2023/10/08 00:46:48;;;;;;;6.55;4.88;;;16.40;70.90;;;;;;4987448;28;20479;-63
2023/10/08 00:51:45;;;;;;;8.05;4.97;;;16.40;70.90;;;;;;4987410;28;20555;-63
2023/10/08 00:54:17;;;;;;;7.90;5.15;;;16.40;71.10;;;;;;4987467;28;20502;-63
2023/10/08 00:56:53;;;;;;;8.40;4.93;;;16.40;71.50;;;;;;4986472;28;20568;-63
2023/10/08 00:59:23;;;;;;;6.55;4.72;;;16.40;71.60;;;;;;4986694;28;20038;-63
2023/10/08 01:02:05;;;;;;;6.97;4.57;;;16.40;71.50;;;;;;4986174;28;20100;-63
2023/10/08 01:04:33;;;;;;;9.60;5.45;;;16.40;71.60;;;;;;4987777;28;20095;-63
2023/10/08 01:07:12;;;;;;;6.80;4.97;;;16.40;71.60;;;;;;4986549;28;20093;-62
2023/10/08 01:09:43;;;;;;;7.15;5.03;;;16.40;71.70;;;;;;4986898;28;20089;-63
2023/10/08 01:12:16;;;;;;;8.20;5.43;;;16.40;71.70;;;;;;4985826;28;20069;-63
2023/10/08 01:14:42;;;;;;;7.32;5.22;;;16.40;71.80;;;;;;4986435;28;20053;-63
2023/10/08 01:17:15;;;;;;;6.90;5.03;;;16.40;72.00;;;;;;4987788;28;20045;-63
2023/10/08 01:19:45;;;;;;;8.90;5.28;;;16.40;72.00;;;;;;4987906;28;20038;-63
2023/10/08 01:22:18;;;;;;;7.20;4.60;;;16.40;72.10;;;;;;4987266;28;20101;-63
2023/10/08 01:24:45;;;;;;;6.90;5.03;;;16.30;72.10;;;;;;4985267;28;20042;-63
2023/10/08 01:27:12;;;;;;;6.25;4.55;;;16.40;72.10;;;;;;4985827;28;20042;-63
2023/10/08 01:29:43;;;;;;;9.75;5.30;;;16.40;72.10;;;;;;4986798;28;20034;-63
2023/10/08 01:32:11;;;;;;;8.32;5.28;;;16.40;72.30;;;;;;4987380;28;20030;-63
2023/10/08 01:34:37;;;;;;;7.20;4.88;;;16.40;72.20;;;;;;4987159;28;20038;-63
2023/10/08 01:37:09;;;;;;;6.35;4.93;;;16.40;72.30;;;;;;4987200;28;20383;-63
2023/10/08 01:39:42;;;;;;;8.10;5.20;;;16.40;72.30;;;;;;4987361;28;20049;-63
2023/10/08 01:42:15;;;;;;;10.52;5.15;;;16.40;72.30;;;;;;4986748;28;20097;-63
2023/10/08 01:44:40;;;;;;;5.53;4.57;;;16.50;72.30;;;;;;4986616;28;20126;-63
2023/10/08 01:47:06;;;;;;;6.80;4.85;;;16.50;72.10;;;;;;4987541;28;20118;-63
2023/10/08 01:49:33;;;;;;;7.63;5.20;;;16.40;72.00;;;;;;4986701;28;20109;-63
2023/10/08 01:52:05;;;;;;;8.40;4.78;;;16.50;72.10;;;;;;4985326;28;20129;-63
2023/10/08 01:54:35;;;;;;;5.97;4.40;;;16.50;72.00;;;;;;4986023;28;20062;-63
2023/10/08 01:57:01;;;;;;;5.85;4.55;;;16.50;71.90;;;;;;4986678;28;20077;-63
2023/10/08 01:59:27;;;;;;;8.90;5.80;;;16.50;71.80;;;;;;4986834;28;20528;-63
2023/10/08 02:01:56;;;;;;;7.00;5.10;;;16.50;71.80;;;;;;4985634;28;20502;-63
2023/10/08 02:04:22;;;;;;;8.60;4.88;;;16.50;71.70;;;;;;4984073;28;20046;-63
2023/10/08 02:06:47;;;;;;;8.07;5.15;;;16.50;71.60;;;;;;4983022;28;20034;-63
2023/10/08 02:09:14;;;;;;;7.70;5.10;;;16.50;71.60;;;;;;4986333;28;20084;-63
2023/10/08 02:11:49;;;;;;;7.65;5.18;;;16.50;71.50;;;;;;4985629;28;20042;-63
2023/10/08 02:14:16;;;;;;;7.93;5.07;;;16.50;71.50;;;;;;4986452;28;20034;-63
2023/10/08 02:16:43;;;;;;;6.95;4.43;;;16.50;71.30;;;;;;4985287;28;20035;-63
2023/10/08 02:19:10;;;;;;;7.75;5.10;;;16.50;71.20;;;;;;4986259;28;20041;-63
2023/10/08 02:21:39;;;;;;;8.43;4.55;;;16.50;71.20;;;;;;4985875;28;20113;-63
2023/10/08 02:24:10;;;;;;;8.00;5.15;;;16.40;71.00;;;;;;4985755;28;20046;-63
2023/10/08 02:26:36;;;;;;;6.88;4.97;;;16.40;71.10;;;;;;4985110;28;20035;-63
2023/10/08 02:29:06;;;;;;;7.47;4.50;;;16.40;70.90;;;;;;4986398;28;20545;-63
2023/10/08 02:31:31;;;;;;;8.20;4.70;;;16.40;70.90;;;;;;4985292;28;20030;-62
2023/10/08 02:33:58;;;;;;;6.90;4.22;;;16.40;71.00;;;;;;4984339;28;20034;-63
2023/10/08 02:36:24;;;;;;;7.75;4.55;;;16.50;70.90;;;;;;4985809;28;20041;-63
2023/10/08 02:38:50;;;;;;;8.23;4.72;;;16.50;70.80;;;;;;4985361;28;20039;-63
2023/10/08 02:41:16;;;;;;;7.78;4.78;;;16.50;70.70;;;;;;4985938;28;20062;-63
2023/10/08 02:43:44;;;;;;;5.88;4.15;;;16.50;70.60;;;;;;4984369;28;20620;-63
2023/10/08 02:46:14;;;;;;;6.22;4.25;;;16.50;70.50;;;;;;4985074;28;20061;-63
2023/10/08 02:48:41;;;;;;;7.70;4.75;;;16.50;70.40;;;;;;4985759;28;20043;-63
2023/10/08 02:51:15;;;;;;;6.05;3.95;;;16.50;70.30;;;;;;4985912;28;20145;-63
2023/10/08 02:53:42;;;;;;;9.18;4.28;;;16.60;70.20;;;;;;4984832;28;20105;-63
2023/10/08 02:56:12;;;;;;;7.45;4.38;;;16.60;70.20;;;;;;4985867;28;20022;-63
2023/10/08 02:58:39;;;;;;;7.45;4.47;;;16.60;70.00;;;;;;4984415;28;20577;-63
2023/10/08 03:01:05;;;;;;;8.00;4.63;;;16.60;69.90;;;;;;4985610;28;20502;-63
2023/10/08 03:03:32;;;;;;;7.15;4.65;;;16.60;69.90;;;;;;4984702;28;20434;-63
2023/10/08 03:05:58;;;;;;;7.85;4.60;;;16.60;69.90;;;;;;4985392;28;20141;-62
2023/10/08 03:08:24;;;;;;;6.32;4.60;;;16.60;69.70;;;;;;4985233;28;20092;-63
2023/10/08 03:10:56;;;;;;;6.80;4.53;;;16.70;69.80;;;;;;4984571;28;20042;-63
2023/10/08 03:13:22;;;;;;;7.70;4.53;;;16.60;69.70;;;;;;4985219;28;20076;-63
2023/10/08 03:18:16;;;;;;;6.43;4.00;;;16.60;69.60;;;;;;4985159;28;20062;-63
2023/10/08 03:20:43;;;;;;;6.18;4.05;;;16.60;69.50;;;;;;4984518;28;20129;-63
2023/10/08 03:23:32;;;;;;;5.07;3.83;;;16.60;69.60;;;;;;4984792;28;20038;-63
2023/10/08 03:26:09;;;;;;;5.70;3.95;;;16.60;69.50;;;;;;4985593;28;20038;-63
2023/10/08 03:28:35;;;;;;;6.43;4.05;;;16.60;69.50;;;;;;4984763;28;20034;-63
2023/10/08 03:31:14;;;;;;;6.20;4.15;;;16.60;69.50;;;;;;4985720;28;20436;-63
2023/10/08 03:33:40;;;;;;;6.05;3.65;;;16.60;69.50;;;;;;4985230;28;20038;-61
2023/10/08 03:36:50;;;;;;;5.68;3.90;;;16.60;69.50;;;;;;4985517;28;20508;-63
2023/10/08 03:38:57;;;;;;;6.00;4.20;;;16.60;69.50;;;;;;4980942;28;20470;-63
2023/10/08 03:41:27;;;;;;;6.50;4.00;;;16.50;69.30;;;;;;4985483;28;20038;-62
2023/10/08 03:43:56;;;;;;;6.43;4.25;;;16.60;69.30;;;;;;4983174;28;20121;-63
2023/10/08 03:46:23;;;;;;;6.55;4.30;;;16.60;69.30;;;;;;4985129;28;20490;-63
2023/10/08 03:48:51;;;;;;;6.18;3.80;;;16.50;69.30;;;;;;4985365;28;20069;-63
2023/10/08 03:51:21;;;;;;;8.88;4.35;;;16.50;69.30;;;;;;4988859;28;20041;-63
2023/10/08 03:54:07;;;;;;;6.50;4.13;;;16.50;69.40;;;;;;4987816;28;20050;-63
2023/10/08 03:56:36;;;;;;;7.03;4.20;;;16.50;69.40;;;;;;4988683;28;20062;-63
2023/10/08 03:59:12;;;;;;;5.72;4.00;;;16.40;69.40;;;;;;4988079;28;20121;-63
2023/10/08 04:01:40;;;;;;;6.47;3.90;;;16.40;69.60;;;;;;4988996;28;20038;-63
2023/10/08 04:04:14;;;;;;;8.13;4.53;;;16.40;69.70;;;;;;4988207;28;20057;-63
2023/10/08 04:06:49;;;;;;;6.33;4.17;;;16.30;69.70;;;;;;4988257;28;20042;-63
2023/10/08 04:09:25;;;;;;;4.65;3.50;;;16.20;69.50;;;;;;4988802;28;20034;-63
2023/10/08 04:11:52;;;;;;;7.43;4.15;;;16.20;69.70;;;;;;4984579;28;20034;-63
2023/10/08 04:14:24;;;;;;;5.72;3.80;;;16.10;69.80;;;;;;4987139;28;20548;-63
2023/10/08 04:16:54;;;;;;;5.85;4.07;;;16.10;70.00;;;;;;4987462;28;20497;-63
2023/10/08 04:19:26;;;;;;;6.88;4.00;;;16.00;70.00;;;;;;4988188;28;20039;-63
2023/10/08 04:21:55;;;;;;;8.02;4.35;;;16.00;70.00;;;;;;4987451;28;20035;-62
2023/10/08 04:24:35;;;;;;;7.40;3.80;;;16.00;70.00;;;;;;4988578;28;20037;-62
2023/10/08 04:27:08;;;;;;;5.97;3.78;;;16.00;70.00;;;;;;4987688;28;20402;-63
2023/10/08 04:29:36;;;;;;;6.20;3.83;;;16.00;69.90;;;;;;4988363;28;20027;-63
2023/10/08 04:32:07;;;;;;;7.03;4.22;;;16.00;69.90;;;;;;4987436;28;20053;-63
2023/10/08 04:34:36;;;;;;;5.00;4.10;;;16.00;69.90;;;;;;4986868;28;20069;-63
2023/10/08 04:37:03;;;;;;;5.38;3.85;;;16.00;69.90;;;;;;4987873;28;20030;-63
2023/10/08 04:39:32;;;;;;;7.35;3.70;;;16.00;69.70;;;;;;4987180;28;20033;-63
2023/10/08 04:42:13;;;;;;;5.72;3.88;;;16.00;69.70;;;;;;4987838;28;20126;-63
2023/10/08 04:44:41;;;;;;;6.38;4.20;;;16.00;69.70;;;;;;4986035;28;20085;-63
2023/10/08 04:47:31;;;;;;;6.30;3.95;;;16.00;69.70;;;;;;4988481;28;20552;-63
2023/10/08 04:49:56;;;;;;;5.40;3.55;;;16.00;69.70;;;;;;4987845;28;20038;-62
2023/10/08 04:52:25;;;;;;;7.15;3.92;;;16.00;69.70;;;;;;4987804;28;20125;-63
2023/10/08 04:54:56;;;;;;;6.40;4.10;;;16.00;69.70;;;;;;4986700;28;20101;-63
2023/10/08 04:57:22;;;;;;;7.05;3.90;;;15.90;69.70;;;;;;4987792;28;20038;-63
2023/10/08 04:59:50;;;;;;;5.57;3.70;;;16.00;69.90;;;;;;4986772;28;22429;-63
2023/10/08 05:04:55;;;;;;;5.25;3.55;;;15.90;69.70;;;;;;4986255;28;20585;-63
2023/10/08 05:07:40;;;;;;;6.18;3.83;;;15.90;69.80;;;;;;4987118;28;20046;-62
2023/10/08 05:26:20;;;;;;;5.45;3.85;;;15.70;70.10;;;;;;4950558;28;20042;-62
2023/10/08 05:29:03;;;;;;;5.65;3.95;;;15.70;70.30;;;;;;4986358;28;20038;-63
2023/10/08 05:31:46;;;;;;;5.78;3.88;;;15.70;70.20;;;;;;4987395;28;20133;-63
2023/10/08 05:34:32;;;;;;;6.30;4.05;;;15.60;70.40;;;;;;4986636;28;20122;-62
2023/10/08 05:39:40;;;;;;;9.05;3.95;;;15.60;70.40;;;;;;4986877;28;20275;-62
2023/10/08 05:43:01;;;;;;;5.90;3.95;;;15.50;70.50;;;;;;4986672;28;20453;-63
2023/10/08 05:45:14;;;;;;;7.55;4.00;;;15.50;70.70;;;;;;4979723;28;20038;-63
2023/10/08 05:47:51;;;;;;;5.93;3.72;;;15.50;70.80;;;;;;4985516;28;20134;-63
2023/10/08 05:53:02;;;;;;;8.32;3.78;;;15.40;71.10;;;;;;4985384;28;20074;-63
2023/10/08 05:55:34;;;;;;;7.18;3.60;;;15.40;71.30;;;;;;4986612;28;20089;-63
2023/10/08 06:01:01;;;;;;;5.90;4.03;;;15.40;72.00;;;;;;4986200;28;20457;-63
2023/10/08 06:03:35;;;;;;;6.53;3.78;;;15.30;71.60;;;;;;4986919;28;20318;-63
2023/10/08 06:08:52;;;;;;;6.28;3.80;;;15.30;71.80;;;;;;4986454;28;20372;-63
2023/10/08 06:14:16;;;;;;;7.85;4.57;;;15.30;72.20;;;;;;4987318;28;20120;-63
2023/10/08 06:16:46;;;;;;;9.65;5.43;;;15.20;72.20;;;;;;4986047;28;20256;-63
2023/10/08 06:19:13;;;;;;;11.48;6.00;;;15.30;72.40;;;;;;4983782;28;20030;-63
2023/10/08 06:21:41;;;;;;;10.45;6.00;;;15.30;73.20;;;;;;4986824;28;20034;-63
2023/10/08 06:24:10;;;;;;;9.35;5.32;;;15.20;72.40;;;;;;4985151;28;20031;-63
2023/10/08 06:26:42;;;;;;;7.55;4.57;;;15.20;72.60;;;;;;4986117;28;20418;-63
2023/10/08 06:29:27;;;;;;;8.80;5.20;;;15.20;72.90;;;;;;4986966;28;20109;-63
2023/10/08 06:31:57;;;;;;;12.20;6.45;;;15.20;73.10;;;;;;4986321;28;20043;-63
2023/10/08 06:34:27;;;;;;;11.10;6.78;;;15.20;73.10;;;;;;4986449;28;20034;-63
2023/10/08 06:36:54;;;;;;;9.38;6.43;;;15.20;73.30;;;;;;4985968;28;20039;-63
2023/10/08 06:39:33;;;;;;;8.10;5.10;;;15.20;73.50;;;;;;4986315;28;20037;-63
2023/10/08 06:41:59;;;;;;;11.23;5.15;;;15.20;73.70;;;;;;4985941;28;20410;-63
2023/10/08 06:44:27;;;;;;;11.48;5.65;;;15.20;73.70;;;;;;4986038;28;20027;-63
2023/10/08 06:46:54;;;;;;;9.90;6.25;;;15.20;73.80;;;;;;4984998;28;20537;-62
2023/10/08 06:49:23;;;;;;;8.43;5.68;;;15.20;73.80;;;;;;4986385;28;20050;-63
2023/10/08 06:51:50;;;;;;;7.32;4.97;;;15.30;73.90;;;;;;4985844;28;20058;-63
2023/10/08 06:54:17;;;;;;;7.07;4.40;;;15.30;73.90;;;;;;4986242;28;20112;-63
2023/10/08 06:56:46;;;;;;;6.57;4.07;;;15.30;74.00;;;;;;4984488;28;20281;-63
2023/10/08 06:59:16;;;;;;;8.20;4.25;;;15.30;74.00;;;;;;4985395;28;20037;-63
2023/10/08 07:01:45;;;;;;;9.45;4.75;;;15.40;74.20;;;;;;4982929;28;20046;-63
2023/10/08 07:04:12;;;;;;;9.25;4.65;;;15.40;74.20;;;;;;4986885;28;20034;-63
2023/10/08 07:06:46;;;;;;;6.50;4.25;;;15.50;74.30;;;;;;4986721;28;20034;-63
2023/10/08 07:11:54;;;;;;;8.63;5.05;;;15.60;74.40;;;;;;4985779;28;20528;-63
2023/10/08 07:14:26;;;;;;;10.80;4.60;;;15.60;74.40;;;;;;4987829;28;20034;-63
2023/10/08 07:16:58;;;;;;;9.57;5.10;;;15.70;74.60;;;;;;4987327;28;20042;-63
2023/10/08 07:19:32;;;;;;;7.07;4.22;;;15.80;74.70;;;;;;4984969;28;20036;-62
2023/10/08 07:22:03;;;;;;;8.95;4.43;;;15.80;74.70;;;;;;4987182;28;20100;-62
2023/10/08 07:24:30;;;;;;;9.57;4.57;;;15.90;74.60;;;;;;4984700;28;20112;-63
2023/10/08 07:26:56;;;;;;;8.10;4.32;;;16.00;74.60;;;;;;4990932;28;20038;-63
2023/10/08 07:29:22;;;;;;;8.05;4.13;;;16.10;74.60;;;;;;4991261;28;20122;-63
2023/10/08 07:31:52;;;;;;;7.90;4.38;;;16.20;74.50;;;;;;4990765;28;20507;-63
2023/10/08 07:34:25;;;;;;;7.45;4.32;;;16.30;74.30;;;;;;4990997;28;20034;-63
2023/10/08 07:36:51;;;;;;;7.32;4.50;;;16.40;74.10;;;;;;4990061;28;20034;-63
2023/10/08 07:41:50;;;;;;;6.82;4.40;;;16.60;73.50;;;;;;4990882;28;20030;-63
2023/10/08 07:44:16;;;;;;;6.70;4.10;;;16.70;73.30;;;;;;4990757;28;20034;-63
2023/10/08 07:46:41;;;;;;;7.22;4.13;;;16.80;73.00;;;;;;4990265;28;20034;-63
2023/10/08 07:49:07;;;;;;;9.65;4.30;;;16.90;72.70;;;;;;4990071;28;20042;-63
2023/10/08 07:51:34;;;;;;;7.35;4.32;;;17.00;72.50;;;;;;4990719;28;20572;-63
2023/10/08 07:53:59;;;;;;;6.80;4.03;;;17.10;72.30;;;;;;4990231;28;20165;-63
2023/10/08 07:56:25;;;;;;;8.40;4.30;;;17.20;72.30;;;;;;4990497;28;20121;-63
2023/10/08 07:58:52;;;;;;;8.05;4.38;;;17.30;72.30;;;;;;4989954;28;20434;-63
2023/10/08 08:01:20;;;;;;;8.05;4.25;;;17.40;72.10;;;;;;4991240;28;20462;-63
2023/10/08 08:03:48;;;;;;;10.45;4.55;;;17.50;72.00;;;;;;4989121;28;20399;-63
2023/10/08 08:06:15;;;;;;;6.80;4.00;;;17.60;71.90;;;;;;4989880;28;20501;-63
2023/10/08 08:08:41;;;;;;;9.13;4.32;;;17.70;72.10;;;;;;4988747;28;20116;-63
2023/10/08 08:11:17;;;;;;;9.07;4.57;;;17.80;71.80;;;;;;4988865;28;20022;-63
2023/10/08 08:13:46;;;;;;;7.85;4.35;;;17.90;71.80;;;;;;4989868;28;21074;-63
2023/10/08 08:16:19;;;;;;;7.88;4.35;;;18.00;71.50;;;;;;4990367;28;20069;-63
2023/10/08 08:18:47;;;;;;;7.55;4.07;;;18.10;71.40;;;;;;4989457;28;20038;-63
2023/10/08 08:21:16;;;;;;;7.55;4.30;;;18.20;71.30;;;;;;4990076;28;20030;-63
2023/10/08 08:23:48;;;;;;;7.80;4.22;;;18.30;71.30;;;;;;4989530;28;20410;-63
2023/10/08 08:26:28;;;;;;;6.32;3.92;;;18.30;71.40;;;;;;4990291;28;20053;-63
2023/10/08 08:29:01;;;;;;;9.07;4.10;;;18.40;71.30;;;;;;4983696;28;20137;-63
2023/10/08 08:31:31;;;;;;;6.85;3.88;;;18.60;71.20;;;;;;4990157;28;20041;-63
2023/10/08 08:33:59;;;;;;;7.18;4.07;;;18.70;71.10;;;;;;4989509;28;20034;-63
2023/10/08 08:36:27;;;;;;;9.27;3.72;;;18.80;71.10;;;;;;4989099;28;20125;-63
2023/10/08 08:38:53;;;;;;;8.73;3.70;;;18.90;70.80;;;;;;4989450;28;20536;-63
2023/10/08 08:41:20;;;;;;;8.70;4.18;;;19.00;70.90;;;;;;4990433;28;20026;-63
2023/10/08 08:43:59;;;;;;;9.23;4.65;;;19.10;70.90;;;;;;4989210;28;20061;-63
2023/10/08 08:46:31;;;;;;;6.13;3.85;;;19.30;71.40;;;;;;4989628;28;20109;-64
2023/10/08 08:49:04;;;;;;;8.88;4.80;;;19.40;70.00;;;;;;4988371;28;20502;-63
2023/10/08 08:51:31;;;;;;;7.15;4.25;;;19.40;69.80;;;;;;4989963;28;20133;-63
2023/10/08 08:53:59;;;;;;;7.28;4.13;;;19.60;69.80;;;;;;4989127;28;20034;-64
2023/10/08 08:56:28;;;;;;;7.50;4.28;;;19.70;70.10;;;;;;4989543;28;20038;-63
2023/10/08 08:58:54;;;;;;;8.40;4.05;;;19.70;69.30;;;;;;4988541;28;20089;-63
2023/10/08 09:01:20;;;;;;;5.90;3.55;;;19.80;69.10;;;;;;4989450;28;20486;-62
2023/10/08 09:03:48;;;;;;;7.28;3.95;;;19.80;68.50;;;;;;4989052;28;20085;-63
2023/10/08 09:06:14;;;;;;;15.07;8.95;;;19.90;68.30;;;;;;4989755;28;20026;-64
2023/10/08 09:08:45;;;;;;;14.02;8.23;;;19.90;68.20;;;;;;4988953;28;20043;-63
2023/10/08 09:11:17;;;;;;;12.45;6.68;;;19.90;67.80;;;;;;4988207;28;20034;-63
2023/10/08 09:13:43;;;;;;;9.63;5.22;;;20.00;67.60;;;;;;4988387;28;20038;-61
2023/10/08 09:16:14;;;;;;;7.03;4.50;;;20.00;67.60;;;;;;4989094;28;20030;-63
2023/10/08 09:18:45;;;;;;;10.23;4.90;;;20.00;67.50;;;;;;4988284;28;20081;-63
2023/10/08 09:21:12;;;;;;;7.05;4.05;;;20.00;67.60;;;;;;4989415;28;20121;-63
2023/10/08 09:23:47;;;;;;;10.05;4.50;;;20.00;67.50;;;;;;4988528;28;20037;-64
2023/10/08 09:26:18;;;;;;;10.13;4.60;;;20.10;67.60;;;;;;4989214;28;20135;-63
2023/10/08 09:28:47;;;;;;;8.05;4.25;;;20.10;67.70;;;;;;4988136;28;20027;-64
2023/10/08 09:31:13;;;;;;;9.55;4.00;;;20.10;67.60;;;;;;4989296;28;20110;-63
2023/10/08 09:33:39;;;;;;;9.02;3.75;;;20.10;67.80;;;;;;4987128;28;20039;-63
2023/10/08 09:36:07;;;;;;;7.45;3.72;;;20.10;67.80;;;;;;4986225;28;20027;-63
2023/10/08 09:38:36;;;;;;;7.32;3.95;;;20.10;67.60;;;;;;4986938;28;20905;-63
2023/10/08 09:41:03;;;;;;;5.95;4.03;;;20.20;67.20;;;;;;4987763;28;20093;-63
2023/10/08 09:43:35;;;;;;;7.97;4.10;;;20.20;67.20;;;;;;4986647;28;20486;-63
2023/10/08 09:46:19;;;;;;;9.85;4.38;;;20.20;67.10;;;;;;4985060;28;20041;-63
2023/10/08 09:48:59;;;;;;;9.38;3.80;;;20.30;67.00;;;;;;4981573;28;20042;-64
2023/10/08 09:51:29;;;;;;;7.50;3.70;;;20.40;67.40;;;;;;4984925;28;20030;-63
2023/10/08 09:54:10;;;;;;;6.32;3.75;;;20.50;67.30;;;;;;4981794;28;20068;-62
2023/10/08 09:56:36;;;;;;;6.63;3.80;;;20.60;66.90;;;;;;4982187;28;20045;-63
2023/10/08 09:59:02;;;;;;;6.63;3.63;;;20.70;66.90;;;;;;4987490;28;20041;-63
2023/10/08 10:01:31;;;;;;;7.90;3.70;;;20.70;66.70;;;;;;4986714;28;20065;-63
2023/10/08 10:03:59;;;;;;;5.85;3.50;;;20.90;66.90;;;;;;4984869;28;20132;-63
2023/10/08 10:06:26;;;;;;;11.18;3.67;;;21.00;67.00;;;;;;4986031;28;20049;-63
2023/10/08 10:08:55;;;;;;;6.45;3.75;;;21.10;66.60;;;;;;4986666;28;20068;-63
2023/10/08 10:11:26;;;;;;;9.60;3.53;;;21.20;66.40;;;;;;4987437;28;20101;-63
2023/10/08 10:14:01;;;;;;;6.30;3.70;;;21.40;65.90;;;;;;4986747;28;20045;-63
2023/10/08 10:16:27;;;;;;;8.90;3.50;;;21.50;65.50;;;;;;4987082;28;20441;-64
2023/10/08 10:18:57;;;;;;;6.97;3.40;;;21.60;65.40;;;;;;4987137;28;23120;-63
2023/10/08 10:21:33;;;;;;;16.33;3.30;;;21.70;64.70;;;;;;4987284;28;20261;-63
2023/10/08 10:23:59;;;;;;;7.45;3.30;;;21.70;64.40;;;;;;4987490;28;20034;-64
2023/10/08 10:26:28;;;;;;;6.70;3.22;;;21.90;64.00;;;;;;4987152;28;20035;-63
2023/10/08 10:29:15;;;;;;;8.82;3.22;;;22.00;63.30;;;;;;4987640;28;20510;-64
2023/10/08 10:31:47;;;;;;;7.85;2.92;;;22.10;62.00;;;;;;4985183;28;20042;-64
2023/10/08 10:34:18;;;;;;;9.38;3.13;;;22.20;62.10;;;;;;4982504;28;20097;-63
2023/10/08 10:36:54;;;;;;;7.65;3.20;;;22.30;61.50;;;;;;4985323;28;20108;-64
2023/10/08 10:39:33;;;;;;;6.88;3.15;;;22.30;61.30;;;;;;4986230;28;20038;-64
2023/10/08 10:42:06;;;;;;;7.55;3.33;;;22.40;61.90;;;;;;4986526;28;20081;-64
2023/10/08 10:44:32;;;;;;;6.97;3.08;;;22.40;62.20;;;;;;4985232;28;20046;-64
2023/10/08 10:49:53;;;;;;;14.80;3.65;;;22.50;62.40;;;;;;4986501;28;20042;-64
2023/10/08 10:52:32;;;;;;;6.38;3.22;;;22.60;62.60;;;;;;4986963;28;20034;-63
2023/10/08 10:57:56;;;;;;;6.47;3.47;;;22.70;61.90;;;;;;4987760;28;20425;-63
2023/10/08 11:03:17;;;;;;;6.38;3.30;;;22.60;62.00;;;;;;4990578;28;20041;-63
2023/10/08 11:05:48;;;;;;;6.43;3.40;;;22.60;62.30;;;;;;4991166;28;20072;-64
2023/10/08 11:08:18;;;;;;;8.38;3.25;;;22.50;62.40;;;;;;4990558;28;20049;-64
2023/10/08 11:10:50;;;;;;;5.10;3.25;;;22.50;62.60;;;;;;4987689;28;20045;-63
2023/10/08 11:13:17;;;;;;;6.45;3.80;;;22.50;62.70;;;;;;4990158;28;20038;-63
2023/10/08 11:15:48;;;;;;;8.50;3.63;;;22.50;62.90;;;;;;4988903;28;20065;-63
2023/10/08 11:18:15;;;;;;;9.65;3.50;;;22.50;62.80;;;;;;4990209;28;20053;-63
2023/10/08 11:20:44;;;;;;;6.07;3.58;;;22.50;63.00;;;;;;4989644;28;20113;-64
2023/10/08 11:23:19;;;;;;;10.25;3.95;;;22.50;63.10;;;;;;4990202;28;20118;-64
2023/10/08 11:26:02;;;;;;;8.35;3.42;;;22.50;63.20;;;;;;4990376;28;20050;-63
2023/10/08 11:28:41;;;;;;;9.82;3.53;;;22.50;62.70;;;;;;4989359;28;20506;-64
2023/10/08 11:31:11;;;;;;;7.15;3.33;;;22.50;62.90;;;;;;4989587;28;20050;-64
2023/10/08 11:33:38;;;;;;;7.85;3.85;;;22.50;62.90;;;;;;4988855;28;20543;-64
2023/10/08 11:36:07;;;;;;;8.27;3.72;;;22.60;63.00;;;;;;4989222;28;20494;-63
2023/10/08 11:38:42;;;;;;;6.43;3.55;;;22.60;63.10;;;;;;4989696;28;20065;-64
2023/10/08 11:41:27;;;;;;;;;;;22.60;62.90;;;;;;4990972;28;20030;-63
2023/10/08 11:43:56;;;;;;;6.82;3.53;;;22.70;63.30;;;;;;4988331;28;20013;-64
2023/10/08 11:46:38;;;;;;;5.95;3.55;;;22.70;63.00;;;;;;4989074;28;20037;-64
2023/10/08 11:49:05;;;;;;;4.88;3.22;;;22.60;62.90;;;;;;4989408;28;20125;-64
2023/10/08 11:51:35;;;;;;;6.60;3.58;;;22.50;62.90;;;;;;4990086;28;20085;-64
2023/10/08 11:54:01;;;;;;;8.77;3.60;;;22.50;63.70;;;;;;4989507;28;20038;-64
2023/10/08 11:56:32;;;;;;;12.60;3.88;;;22.50;62.90;;;;;;4989486;28;20037;-64
2023/10/08 11:58:57;;;;;;;8.73;3.47;;;22.50;62.60;;;;;;4990062;28;20050;-64
2023/10/08 12:01:24;;;;;;;6.50;3.55;;;22.50;62.70;;;;;;4989605;28;20231;-64
2023/10/08 12:03:50;;;;;;;5.78;3.35;;;22.50;63.10;;;;;;4989166;28;20618;-64
2023/10/08 12:06:18;;;;;;;6.03;3.33;;;22.50;63.30;;;;;;4989622;28;20031;-64
2023/10/08 12:08:53;;;;;;;9.13;3.78;;;22.50;63.00;;;;;;4987431;28;20069;-64
2023/10/08 12:11:19;;;;;;;8.15;3.10;;;22.50;62.90;;;;;;4987862;28;20026;-63
2023/10/08 12:13:45;;;;;;;6.53;3.05;;;22.50;64.00;;;;;;4987445;28;20040;-64
2023/10/08 12:16:23;;;;;;;6.25;3.45;;;22.50;63.40;;;;;;4989456;28;20054;-63
2023/10/08 12:18:58;;;;;;;6.03;3.17;;;22.60;62.80;;;;;;4988725;28;20034;-63
2023/10/08 12:21:31;;;;;;;9.82;3.78;;;22.60;63.10;;;;;;4989168;28;20359;-64
2023/10/08 12:23:58;;;;;;;9.35;3.42;;;22.70;62.90;;;;;;4988755;28;20402;-63
2023/10/08 12:26:24;;;;;;;7.18;3.60;;;22.70;62.90;;;;;;4989328;28;20593;-63
2023/10/08 12:28:50;;;;;;;10.02;3.35;;;22.70;62.70;;;;;;4988367;28;20041;-64
2023/10/08 12:31:22;;;;;;;8.23;3.45;;;22.70;62.70;;;;;;4989321;28;20031;-64
2023/10/08 12:33:48;;;;;;;11.05;3.35;;;22.80;62.90;;;;;;4988522;28;20034;-63
2023/10/08 12:36:16;;;;;;;7.93;3.38;;;22.80;62.70;;;;;;4988738;28;20457;-64
2023/10/08 12:38:43;;;;;;;6.25;3.40;;;22.80;62.80;;;;;;4987330;28;20046;-63
2023/10/08 12:41:12;;;;;;;7.90;3.80;;;22.80;62.70;;;;;;4987180;28;20062;-63
2023/10/08 12:43:45;;;;;;;10.63;3.67;;;22.90;62.40;;;;;;4987793;28;20045;-64
2023/10/08 12:46:18;;;;;;;7.18;3.28;;;22.90;62.20;;;;;;4988135;28;20125;-64
2023/10/08 12:48:47;;;;;;;11.10;4.13;;;23.00;62.00;;;;;;4988160;28;20398;-62
2023/10/08 12:51:14;;;;;;;4.88;3.13;;;23.00;61.90;;;;;;4988495;28;20125;-64
2023/10/08 12:53:39;;;;;;;7.35;3.78;;;23.00;61.70;;;;;;4988506;28;20600;-63
2023/10/08 12:56:07;;;;;;;8.32;3.30;;;23.00;61.90;;;;;;4988888;28;20157;-64
2023/10/08 12:58:41;;;;;;;6.45;3.40;;;23.00;61.90;;;;;;4988327;28;20038;-64
2023/10/08 13:01:14;;;;;;;6.10;3.28;;;23.00;62.10;;;;;;4988521;28;20502;-64
2023/10/08 13:03:47;;;;;;;7.20;3.35;;;23.10;61.70;;;;;;4986479;28;20088;-64
2023/10/08 13:06:22;;;;;;;7.10;3.30;;;23.10;61.90;;;;;;4988790;28;20058;-64
2023/10/08 13:08:52;;;;;;;6.45;3.35;;;23.20;62.00;;;;;;4987646;28;20045;-64
2023/10/08 13:11:25;;;;;;;5.18;2.80;;;23.20;61.90;;;;;;4987609;28;20125;-64
2023/10/08 13:13:58;;;;;;;7.45;3.70;;;23.30;61.90;;;;;;4987045;28;20551;-64
2023/10/08 13:16:25;;;;;;;6.13;3.30;;;23.30;61.30;;;;;;4988082;28;20185;-64
2023/10/08 13:18:52;;;;;;;7.68;3.50;;;23.30;61.70;;;;;;4986974;28;20862;-64
2023/10/08 13:21:24;;;;;;;8.65;3.08;;;23.40;61.50;;;;;;4987052;28;20038;-64
2023/10/08 13:23:53;;;;;;;7.28;3.00;;;23.40;61.40;;;;;;4987612;28;20042;-64
2023/10/08 13:26:22;;;;;;;5.75;3.17;;;23.40;61.50;;;;;;4987801;28;20090;-64
2023/10/08 13:28:48;;;;;;;8.93;3.33;;;23.30;61.30;;;;;;4987328;28;20037;-64
2023/10/08 13:31:16;;;;;;;7.88;3.38;;;23.40;61.10;;;;;;4987512;28;20413;-64
2023/10/08 13:33:44;;;;;;;8.80;3.40;;;23.30;60.80;;;;;;4985824;28;20041;-64
2023/10/08 13:36:11;;;;;;;7.55;2.95;;;23.30;60.60;;;;;;4987676;28;21017;-64
2023/10/08 13:38:37;;;;;;;3.85;2.65;;;23.30;60.70;;;;;;4987219;28;20042;-63
2023/10/08 13:41:06;;;;;;;6.40;3.40;;;23.30;61.00;;;;;;4988177;28;20035;-64
2023/10/08 13:43:35;;;;;;;8.73;3.92;;;23.30;61.00;;;;;;4987571;28;20042;-64
2023/10/08 13:46:06;;;;;;;8.75;3.63;;;23.30;60.50;;;;;;4987349;28;20042;-63
2023/10/08 13:48:33;;;;;;;7.97;3.33;;;23.30;60.30;;;;;;4985562;28;20034;-63
2023/10/08 13:51:01;;;;;;;9.27;4.00;;;23.30;60.10;;;;;;4987450;28;20026;-64
2023/10/08 13:53:29;;;;;;;7.65;3.60;;;23.30;60.10;;;;;;4986999;28;20088;-63